This is the latest recevied weather packets stored in our database for station/object GW1495. If no packets are shown the sender has not sent any weather packets the latest 10 day(s).
| Time | Temp. | Humidity | Pressure | Rain* | Wind** | Luminosity | Snow |
|---|---|---|---|---|---|---|---|
| 1777388784 | 19.44° C | 76% | 1021.3 hPa | 13.21 mm | - | - | - |
| 1777388452 | 18.89° C | 77% | 1021.3 hPa | 13.21 mm | - | - | - |
| 1777382664 | 15.56° C | 95% | 1020.6 hPa | 13.21 mm | - | - | - |
| 1777380158 | 13.89° C | 99% | 1020.9 hPa | 13.21 mm | - | - | - |
| 1777379789 | 13.33° C | 99% | 1020.9 hPa | 13.21 mm | - | - | - |
| 1777379443 | 13.33° C | 99% | 1020.9 hPa | 13.21 mm | - | - | - |
| 1777377651 | 13.33° C | 99% | 1020.9 hPa | 13.21 mm | - | - | - |
| 1777376930 | 12.78° C | 99% | 1020.9 hPa | 13.21 mm | - | - | - |
| 1777374051 | 12.22° C | 99% | 1019.9 hPa | 13.21 mm | - | - | - |
| 1777373323 | 12.22° C | 99% | 1021.6 hPa | 12.95 mm | - | - | - |
| 1777371886 | 12.78° C | 99% | 1022.6 hPa | 12.7 mm | - | - | - |
| 1777371509 | 12.78° C | 99% | 1022.6 hPa | 12.45 mm | - | - | - |
| 1777367892 | 12.78° C | 99% | 1023.3 hPa | 11.94 mm | - | - | - |
| 1777366828 | 12.78° C | 99% | 1023 hPa | 11.68 mm | - | - | - |
| 1777366464 | 12.78° C | 99% | 1024 hPa | 11.43 mm | - | - | - |
| 1777365750 | 12.78° C | 99% | 1023.3 hPa | 10.67 mm | - | - | - |
| 1777363960 | 12.78° C | 99% | 1019.3 hPa | 7.11 mm | - | - | - |
| 1777361788 | 12.78° C | 98% | 1019.9 hPa | 5.08 mm | - | - | - |
| 1777360346 | 12.78° C | 97% | 1020.3 hPa | 3.05 mm | - | - | - |
| 1777356025 | 15.56° C | 79% | 1022.6 hPa | 0 mm | - | - | - |
| 1777350613 | 15.56° C | 71% | 1020.9 hPa | 0 mm | - | - | - |
| 1777349561 | 16.11° C | 70% | 1020.9 hPa | 0 mm | - | - | - |
| 1777348490 | 15.56° C | 73% | 1020.9 hPa | 0 mm | - | - | - |
| 1777347395 | 15.56° C | 72% | 1021.3 hPa | 0 mm | - | - | - |
| 1777346688 | 15.56° C | 72% | 1021.3 hPa | 0 mm | - | - | - |
* Rain since midnight (hover to see other rain measurements)
** Current wind speed in m/s (hover to see current wind gust speed)